Flight Track Log - Related Links

Times and Time Zones

All times are in EDT time to prevent confusion due to time zone crossing. See the N1926A flight status page for this flight to view local times or setup timezone preferences in your user account.

Time Position Orientation Groundspeed Altitude Reporting Facility
EDT Latitude Longitude Course Direction KTS km/h feet Rate Location/Type
Sat 13h41:53 32.4556 -85.8531 180° South 153 283 3.900  Level Atlanta Center
Sat 13h42:53 32.4117 -85.8472 174° South 153 283 6.300 2.100 Climbing Atlanta Center
Sat 13h43:53 32.3658 -85.8439 176° South 174 322 8.100 1.650 Climbing Atlanta Center
Sat 13h44:53 32.3075 -85.8428 179° South 174 322 9.600 950 Climbing Atlanta Center
Sat 13h45:53 32.2450 -85.8339 173° South 202 373 10.000 250 Climbing Atlanta Center
Sat 13h46:53 32.1761 -85.8278 176° South 231 428 10.100  Climbing Atlanta Center
Sat 13h47:00 32.2159 -85.8648 180° South  Level Estimated
Sat 13h47:53 32.1136 -85.8217 175° South 242 447 10.000  Level Atlanta Center
Sat 13h48:53 32.0447 -85.8178 177° South 252 467 10.100 350 Climbing Atlanta Center
Sat 13h49:53 31.9781 -85.8117 176° South 252 467 10.700 450 Climbing Atlanta Center
Sat 13h50:53 31.9114 -85.8078 177° South 252 467 11.000 150 Climbing Atlanta Center
Sat 13h51:53 31.8406 -85.8064 179° South 252 467 11.000  Level Atlanta Center
Sat 13h52:40 31.7842 -85.8108 184° South 264 489 11.000  Level Jacksonville Center
Sat 13h53:40 31.7111 -85.8133 182° South 269 499 11.000  Level Jacksonville Center
Sat 13h54:40 31.6400 -85.8158 182° South 269 499 11.000  Level Jacksonville Center
Sat 13h55:40 31.5711 -85.8186 182° South 269 499 11.000  Level Jacksonville Center
Sat 13h56:40 31.5003 -85.8189 180° South 269 499 11.000  Level Jacksonville Center
Sat 13h57:40 31.4550 -85.8711 225° Southwest 233 431 11.000  Level Jacksonville Center
Sat 13h58:40 31.4200 -85.9406 239° Southwest 229 425 11.000  Level Jacksonville Center
Sat 13h59:40 31.3831 -86.0075 237° Southwest 241 446 11.000  Level Jacksonville Center
Sat 14h00:40 31.3356 -86.0667 227° Southwest 246 455 11.000  Level Jacksonville Center
Sat 14h01:40 31.2903 -86.1233 227° Southwest 246 455 11.000  Level Jacksonville Center
Sat 14h02:40 31.2469 -86.1850 231° Southwest 252 467 11.000  Level Jacksonville Center
Sat 14h03:40 31.2014 -86.2492 230° Southwest 252 467 11.000  Level Jacksonville Center
Sat 14h04:40 31.1622 -86.3083 232° Southwest 252 467 11.000  Level Jacksonville Center
Sat 14h05:40 31.1250 -86.3750 237° Southwest 252 467 11.000  Level Jacksonville Center
Sat 14h06:40 31.0897 -86.4464 240° Southwest 252 467 11.000  Level Jacksonville Center
Sat 14h07:40 31.0525 -86.5056 234° Southwest 246 455 11.000 -42 Level Jacksonville Center
Sat 14h09:04 30.9950 -86.6125 238° Southwest 246 455 10.900  Descending Jacksonville Center
Sat 14h09:40 30.9692 -86.6453 227° Southwest 251 465 11.000  Climbing Jacksonville Center
Sat 14h09:58 30.9536 -86.6739 238° Southwest 247 457 10.900  Descending Jacksonville Center
Sat 14h10:40 30.9361 -86.7047 237° Southwest 259 480 11.000  Climbing Jacksonville Center
Sat 14h10:59 30.9100 -86.7350 225° Southwest 247 457 10.900  Descending Jacksonville Center
Sat 14h11:40 30.8944 -86.7683 241° Southwest 259 480 11.000  Climbing Jacksonville Center
Sat 14h12:00 30.8683 -86.7986 225° Southwest 248 459 10.900 -300 Descending Jacksonville Center
Sat 14h12:40 30.8486 -86.8292 233° Southwest 259 480 10.700 -900 Descending Jacksonville Center
Sat 14h13:00 30.8225 -86.8644 229° Southwest 266 492 10.000 -1.100 Descending Jacksonville Center
Sat 14h13:40 30.8006 -86.8975 232° Southwest 265 491 9.600 -885 Descending Jacksonville Center
Sat 14h14:01 30.7786 -86.9303 232° Southwest 266 492 9.100 -1.300 Descending Jacksonville Center
Sat 14h14:40 30.7506 -86.9653 227° Southwest 265 491 8.300 -2.164 Descending Jacksonville Center
Sat 14h15:02 30.7325 -87.0008 239° Southwest 280 518 6.900 -2.300 Descending Jacksonville Center
Sat 14h15:40 30.7106 -87.0336 232° Southwest 270 501 6.000 -1.800 Descending Jacksonville Center
Sat 14h16:02 30.6906 -87.0714 238° Southwest 282 523 5.100 -1.700 Descending Jacksonville Center
Sat 14h16:40 30.6644 -87.1067 229° Southwest 275 509 4.300 -1.082 Descending Jacksonville Center
Sat 14h17:03 30.6425 -87.1417 234° Southwest 270 501 4.000 -300 Descending Jacksonville Center
Sat 14h17:40 30.6289 -87.1750 245° Southwest 270 501 4.000  Level Jacksonville Center
Sat 14h18:04 30.6047 -87.2078 229° Southwest 231 428 4.000  Level Jacksonville Center
Sat 14h18:40 30.5892 -87.2358 237° Southwest 257 476 4.000  Level Jacksonville Center
Sat 14h19:04 30.5669 -87.2711 234° Southwest 234 433 4.000 -71 Level Jacksonville Center
Sat 14h20:05 30.5253 -87.3294 230° Southwest 231 428 3.900 -293 Descending Jacksonville Center
Sat 14h21:07 30.4756 -87.3825 223° Southwest 240 444 3.400 -422 Descending Jacksonville Center
Sat 14h22:13 30.4214 -87.4378 221° Southwest 239 443 3.000 -614 Descending Jacksonville Center
Sat 14h23:14 30.3942 -87.4992 243° Southwest 214 396 2.100 -793 Descending Jacksonville Center
Sat 14h24:14 30.3647 -87.5578 240° Southwest 196 364 1.400 -700 Descending Jacksonville Center

Login

Don't have an account? Register now (free) for customized features, flight alerts, and more!